Portada
METAR-TAF:

METAR-TAF

Aeropuertos :

Caracas, Venezuela

Aeropuerto Internacional de Maiquetía Simón Bolívar

latitud: 10-36N, longitud: 066-59W, altitud: 43 m

Observación

El informe se hizo hace 1 hora y 43 minutos, a las 08:00 UTC
Viento calma
Temperatura 24°C
Humedad 78%
Presión 1012 hPa
Visibilidad 10 km o más
Cielo nuboso a una altura de 1600 ft

METAR: SVMI 250800Z 00000KT 9999 BKN016 24/20 Q1012

Hora: 05:43 (09:43 UTC)

Pronóstico

El informe se hizo hace 5 horas y 43 minutos, a las 04:00 UTC
Pronóstico válido del 25 a las 06 UTC al 26 a las 06 UTC
Viento 10 kt del sureste
Visibilidad 10 km o más
Cielo nuboso a una altura de 1600 ft
Evolucionando progresivamente
del 25 a las 06 UTC al 25 a las 10 UTC
Viento 4 kt del este
Visibilidad: 9000 m
Cielo cubierto a una altura de 2000 ft
llovizna

TAF: SVMI 250400Z 2506/2606 14010KT 9999 BKN016 TX32/19Z TN23/09Z BECMG 2506/2510 10004KT 9000 DZ OVC020

Observaciones y pronósticos meteorológicos de más de 4000 aeropuertos (mensajes METAR y TAF).

Los puntos amarillos y rojos representan las estaciones disponibles.

Ponga el ratón en el punto deseado para ver el nombre de la estación.

Haga clic para ver las observaciones y los pronósticos meteorológicos.

Para cambiar el mapa : haga clic en los botones verdes con una cruz de color negro para hacer un zoom, en el botón verde con un guión para alejar o en las flechas verdes para mapas adyacentes.


METAR-TAF: